Flight Track Log - Related Links

Times and Time Zones

All times are in EDT time to prevent confusion due to time zone crossing. See the N3036C flight status page for this flight to view local times or setup timezone preferences in your user account.

Time Position Orientation Groundspeed Altitude Reporting Facility
EDT Latitude Longitude Course Direction KTS MPH feet Rate Location/Type
Tue 04:47:03 PM 37.5797 -84.5867 90° East 125 144 4,800  Level Indianapolis Center
Tue 04:48:05 PM 37.5811 -84.5453 88° East 120 138 5,600 774 Climbing Indianapolis Center
Tue 04:49:07 PM 37.5817 -84.5050 89° East 116 133 6,400 677 Climbing Indianapolis Center
Tue 04:50:09 PM 37.5808 -84.4611 91° East 121 139 7,000 290 Climbing Indianapolis Center
Tue 04:51:00 PM 37.5833 -84.4437 90° East  Level FlightAware Approximate
Tue 04:51:11 PM 37.5756 -84.3997 96° East 145 167 7,000  Level Indianapolis Center
Tue 04:52:00 PM 37.5668 -84.3902 90° East  Level FlightAware Approximate
Tue 04:52:13 PM 37.5689 -84.3436 99° East 159 183 7,000  Level Indianapolis Center
Tue 04:53:15 PM 37.5644 -84.2836 95° East 168 193 6,900 -48 Descending Indianapolis Center
Tue 04:54:17 PM 37.5617 -84.2250 93° East 168 193 6,900  Level Indianapolis Center
Tue 04:56:21 PM 37.5608 -84.1092 90° East 166 191 6,900  Level Indianapolis Center
Tue 04:57:23 PM 37.5625 -84.0406 88° East 167 192 6,900  Level Indianapolis Center
Tue 04:58:25 PM 37.5644 -83.9850 87° East 161 185 6,900  Level Indianapolis Center
Tue 04:59:27 PM 37.5647 -83.9286 90° East 161 185 6,900  Level Indianapolis Center
Tue 05:00:29 PM 37.5639 -83.8717 91° East 163 188 6,900  Level Indianapolis Center
Tue 05:01:32 PM 37.5656 -83.8128 88° East 165 190 6,900  Level Indianapolis Center
Tue 05:02:33 PM 37.5661 -83.7553 89° East 165 190 6,900  Level Indianapolis Center
Tue 05:03:35 PM 37.5686 -83.6892 87° East 161 185 6,900  Level Indianapolis Center
Tue 05:04:37 PM 37.5681 -83.6317 91° East 163 188 6,900  Level Indianapolis Center
Tue 05:05:39 PM 37.5664 -83.5733 92° East 165 190 6,900 -145 Level Indianapolis Center
Tue 05:06:41 PM 37.5633 -83.5164 94° East 165 190 6,600 -339 Descending Indianapolis Center
Tue 05:07:43 PM 37.5581 -83.4575 96° East 166 191 6,200 -290 Descending Indianapolis Center
Tue 05:08:45 PM 37.5514 -83.3900 97° East 166 191 6,000 -96 Descending Indianapolis Center
Tue 05:09:48 PM 37.5494 -83.3353 93° East 162 186 6,000  Level Indianapolis Center
Tue 05:10:50 PM 37.5494 -83.2811 90° East 157 181 6,000  Level Indianapolis Center
Tue 05:11:52 PM 37.5497 -83.2253 90° East 157 181 6,000  Level Indianapolis Center
Tue 05:12:54 PM 37.5497 -83.1689 90° East 158 182 6,000 -48 Level Indianapolis Center
Tue 05:13:56 PM 37.5531 -83.1125 86° East 160 184 5,900 -242 Descending Indianapolis Center
Tue 05:14:58 PM 37.5583 -83.0442 84° East 164 189 5,500 -341 Descending Indianapolis Center
Tue 05:15:59 PM 37.5494 -82.9836 100° East 171 197 5,200 -295 Descending Indianapolis Center

Login

Don't have an account? Register now (free) for customized features, flight alerts, and more!